Time;durP1;ratioP1;P1;durP2;ratioP2;P2;SDS_P1;SDS_P2;PMS_P1;PMS_P2;Temp;Humidity;BMP_temperature;BMP_pressure;BME280_temperature;BME280_humidity;BME280_pressure;Samples;Min_cycle;Max_cycle;Signal;HPM_P1;HPM_P2
2021/10/30 00:01:03;;;;;;;39.10;26.08;;;;;;;6.37;100.00;99948.28;5037210;28;20071;-53
2021/10/30 00:03:30;;;;;;;41.63;26.52;;;;;;;6.32;100.00;99960.72;5035493;28;20135;-53
2021/10/30 00:05:56;;;;;;;43.20;26.55;;;;;;;6.30;100.00;99947.63;5029057;28;20136;-53
2021/10/30 00:08:24;;;;;;;42.45;26.30;;;;;;;6.20;100.00;99935.75;5035975;28;20048;-53
2021/10/30 00:10:51;;;;;;;43.15;26.58;;;;;;;6.18;100.00;99934.06;5037661;28;20053;-53
2021/10/30 00:13:17;;;;;;;42.33;26.95;;;;;;;6.29;100.00;99956.44;5043098;28;20051;-56
2021/10/30 00:15:44;;;;;;;43.72;27.67;;;;;;;6.33;100.00;99950.16;5032688;28;20590;-55
2021/10/30 00:18:11;;;;;;;43.45;27.48;;;;;;;6.38;100.00;99947.34;5040004;28;20132;-53
2021/10/30 00:20:38;;;;;;;42.03;28.08;;;;;;;6.43;100.00;99955.09;5040303;28;20063;-55
2021/10/30 00:23:04;;;;;;;44.78;27.90;;;;;;;6.42;100.00;99948.09;5033831;28;20097;-52
2021/10/30 00:25:31;;;;;;;43.53;27.58;;;;;;;6.36;100.00;99925.50;5033579;28;20505;-52
2021/10/30 00:27:57;;;;;;;46.13;29.08;;;;;;;6.38;100.00;99926.31;5036746;28;20076;-53
2021/10/30 00:30:24;;;;;;;43.47;27.55;;;;;;;6.38;100.00;99915.78;5043069;28;20608;-53
2021/10/30 00:32:50;;;;;;;42.38;27.63;;;;;;;6.36;100.00;99911.50;5040815;28;20052;-53
2021/10/30 00:35:17;;;;;;;45.20;28.85;;;;;;;6.40;100.00;99913.13;5033993;28;20052;-53
2021/10/30 00:37:44;;;;;;;45.33;28.13;;;;;;;6.41;100.00;99913.06;5045503;28;20047;-54
2021/10/30 00:40:12;;;;;;;43.92;28.48;;;;;;;6.44;100.00;99905.06;5037866;28;20048;-54
2021/10/30 00:42:39;;;;;;;43.70;27.40;;;;;;;6.46;100.00;99910.22;5042837;28;20044;-53
2021/10/30 00:45:06;;;;;;;43.45;27.65;;;;;;;6.50;100.00;99910.06;5028056;28;20052;-53
2021/10/30 00:47:34;;;;;;;42.05;27.63;;;;;;;6.57;100.00;99922.09;5021538;28;20054;-52
2021/10/30 00:50:01;;;;;;;43.55;27.02;;;;;;;6.55;100.00;99917.78;5034655;28;20086;-53
2021/10/30 00:52:29;;;;;;;41.95;27.50;;;;;;;6.55;100.00;99921.28;5048277;28;20049;-54
2021/10/30 00:54:59;;;;;;;41.40;27.30;;;;;;;6.45;100.00;99919.94;5029760;28;20040;-52
2021/10/30 00:57:27;;;;;;;43.90;28.95;;;;;;;6.42;100.00;99917.41;5035172;28;20533;-54
2021/10/30 00:59:54;;;;;;;42.70;27.30;;;;;;;6.40;100.00;99923.63;5042703;28;20056;-52
2021/10/30 01:02:22;;;;;;;41.67;27.30;;;;;;;6.37;100.00;99924.59;5042801;28;20060;-52
2021/10/30 01:04:49;;;;;;;40.83;26.10;;;;;;;6.27;100.00;99913.56;5034152;28;20056;-53
2021/10/30 01:07:16;;;;;;;40.97;26.55;;;;;;;6.21;100.00;99915.56;5039207;28;20074;-53
2021/10/30 01:09:42;;;;;;;38.47;26.50;;;;;;;6.20;100.00;99919.09;5036496;28;20410;-56
2021/10/30 01:12:10;;;;;;;39.80;26.02;;;;;;;6.14;100.00;99907.03;5038720;28;20045;-54
2021/10/30 01:14:38;;;;;;;41.53;26.45;;;;;;;6.15;100.00;99915.78;5033677;28;20041;-55
2021/10/30 01:17:07;;;;;;;38.90;26.73;;;;;;;6.01;100.00;99900.50;5039780;28;20053;-53
2021/10/30 01:19:34;;;;;;;42.05;26.08;;;;;;;6.09;100.00;99906.38;5042223;28;20041;-53
2021/10/30 01:22:01;;;;;;;42.80;27.25;;;;;;;6.08;100.00;99911.66;5035471;28;20045;-52
2021/10/30 01:24:27;;;;;;;41.42;26.77;;;;;;;6.08;100.00;99914.31;5032711;28;20053;-52
2021/10/30 01:26:54;;;;;;;40.75;25.92;;;;;;;6.09;100.00;99913.38;5038552;28;20037;-52
2021/10/30 01:29:21;;;;;;;40.67;25.98;;;;;;;6.04;100.00;99910.06;5035584;28;20037;-52
2021/10/30 01:31:49;;;;;;;41.55;25.95;;;;;;;6.03;100.00;99897.81;5039999;28;20067;-53
2021/10/30 01:34:16;;;;;;;44.10;27.52;;;;;;;5.99;100.00;99892.69;5039453;28;20049;-54
2021/10/30 01:36:43;;;;;;;41.58;26.55;;;;;;;6.03;100.00;99889.94;5036104;28;20049;-53
2021/10/30 01:39:10;;;;;;;43.60;26.75;;;;;;;5.98;100.00;99890.97;5036197;28;20041;-53
2021/10/30 01:41:37;;;;;;;46.03;27.05;;;;;;;6.01;100.00;99887.38;5036531;28;20049;-54
2021/10/30 01:44:06;;;;;;;40.10;26.30;;;;;;;5.98;100.00;99884.88;5032099;28;20060;-53
2021/10/30 01:46:33;;;;;;;40.22;25.13;;;;;;;5.97;100.00;99875.28;5034312;28;20057;-54
2021/10/30 01:49:00;;;;;;;39.47;25.63;;;;;;;5.93;100.00;99877.16;5035683;28;20052;-53
2021/10/30 01:51:27;;;;;;;41.10;25.52;;;;;;;5.95;100.00;99869.22;5038435;28;20053;-54
2021/10/30 01:53:55;;;;;;;40.85;25.48;;;;;;;5.91;100.00;99868.47;5039960;28;20049;-54
2021/10/30 01:56:22;;;;;;;38.85;24.70;;;;;;;5.90;100.00;99869.38;5033740;28;20037;-53
2021/10/30 01:58:48;;;;;;;40.25;25.90;;;;;;;5.91;100.00;99871.09;5039230;28;20045;-53
2021/10/30 02:01:15;;;;;;;41.85;26.48;;;;;;;5.89;100.00;99875.53;5036285;28;20048;-53
2021/10/30 02:03:42;;;;;;;41.90;25.13;;;;;;;5.86;100.00;99866.88;5038721;28;20049;-53
2021/10/30 02:06:09;;;;;;;41.58;25.70;;;;;;;5.87;100.00;99858.94;5014632;28;20057;-52
2021/10/30 02:08:36;;;;;;;38.70;25.00;;;;;;;5.90;100.00;99853.59;5042216;28;20065;-54
2021/10/30 02:11:03;;;;;;;40.45;24.95;;;;;;;5.93;100.00;99850.88;5042622;28;20400;-52
2021/10/30 02:13:30;;;;;;;42.13;25.38;;;;;;;5.91;100.00;99854.47;5038341;28;20056;-53
2021/10/30 02:15:57;;;;;;;39.55;25.10;;;;;;;5.87;100.00;99844.94;5028076;28;20041;-52
2021/10/30 02:18:24;;;;;;;36.17;24.00;;;;;;;5.83;100.00;99836.31;5037025;28;20751;-58
2021/10/30 02:20:50;;;;;;;39.17;25.02;;;;;;;5.83;100.00;99838.94;5042545;28;20059;-52
2021/10/30 02:23:17;;;;;;;38.15;24.38;;;;;;;5.81;100.00;99834.66;5038221;28;20044;-54
2021/10/30 02:25:44;;;;;;;36.40;23.80;;;;;;;5.78;100.00;99851.41;5022888;28;20046;-52
2021/10/30 02:28:10;;;;;;;40.17;25.02;;;;;;;5.75;100.00;99845.38;5045462;28;20049;-53
2021/10/30 02:30:37;;;;;;;37.92;24.23;;;;;;;5.73;100.00;99829.69;5037837;28;20867;-52
2021/10/30 02:33:04;;;;;;;39.25;24.77;;;;;;;5.76;100.00;99832.19;5033625;28;20413;-52
2021/10/30 02:35:31;;;;;;;38.92;24.40;;;;;;;5.76;100.00;99834.81;5024329;28;20052;-51
2021/10/30 02:37:57;;;;;;;41.47;24.67;;;;;;;5.74;100.00;99834.03;5035340;28;20055;-52
2021/10/30 02:40:24;;;;;;;40.13;25.17;;;;;;;5.77;100.00;99828.66;5041001;28;20047;-52
2021/10/30 02:42:51;;;;;;;39.35;24.73;;;;;;;5.76;100.00;99826.94;5032946;28;20053;-52
2021/10/30 02:45:18;;;;;;;39.35;25.17;;;;;;;5.78;100.00;99824.25;5032638;28;20041;-52
2021/10/30 02:47:44;;;;;;;39.33;24.33;;;;;;;5.77;100.00;99820.78;5035419;28;20045;-54
2021/10/30 02:50:11;;;;;;;38.88;25.02;;;;;;;5.80;100.00;99823.31;5036631;28;20056;-53
2021/10/30 02:52:37;;;;;;;36.85;23.27;;;;;;;5.78;100.00;99816.38;5039163;28;20048;-54
2021/10/30 02:55:04;;;;;;;40.63;25.02;;;;;;;5.78;100.00;99808.50;5029786;28;20443;-53
2021/10/30 02:57:31;;;;;;;34.15;23.13;;;;;;;5.80;100.00;99818.03;5034829;28;20044;-52
2021/10/30 02:59:58;;;;;;;35.33;22.52;;;;;;;5.80;100.00;99812.78;5037725;28;20596;-52
2021/10/30 03:02:24;;;;;;;33.65;21.95;;;;;;;5.79;100.00;99804.97;5048987;28;20041;-54
2021/10/30 03:04:51;;;;;;;36.50;22.55;;;;;;;5.79;100.00;99797.94;5033735;28;20367;-53
2021/10/30 03:07:19;;;;;;;34.35;22.00;;;;;;;5.75;100.00;99795.47;5033020;28;20041;-53
2021/10/30 03:09:49;;;;;;;35.88;22.60;;;;;;;5.78;100.00;99798.84;5036573;28;20730;-54
2021/10/30 03:12:18;;;;;;;34.28;22.50;;;;;;;5.80;100.00;99791.78;5036159;28;20849;-55
2021/10/30 03:14:45;;;;;;;34.65;22.10;;;;;;;5.67;100.00;99772.09;5033289;28;20052;-52
2021/10/30 03:17:12;;;;;;;37.42;22.17;;;;;;;5.80;100.00;99790.91;5033726;28;20517;-54
2021/10/30 03:19:38;;;;;;;37.45;23.33;;;;;;;5.80;99.68;99785.66;5040888;28;20572;-52
2021/10/30 03:22:05;;;;;;;34.72;21.70;;;;;;;5.79;100.00;99787.44;5043983;28;20127;-53
2021/10/30 03:24:31;;;;;;;38.10;22.00;;;;;;;5.77;99.65;99791.03;5038959;28;20046;-52
2021/10/30 03:26:58;;;;;;;36.33;21.58;;;;;;;5.69;99.06;99751.88;5029902;28;20048;-53
2021/10/30 03:29:24;;;;;;;34.75;22.27;;;;;;;5.70;98.87;99748.34;5025977;28;20037;-52
2021/10/30 03:31:51;;;;;;;33.28;20.23;;;;;;;5.84;98.78;99767.06;5036740;28;20053;-53
2021/10/30 03:34:17;;;;;;;30.73;20.38;;;;;;;5.80;98.50;99749.75;5039230;28;20052;-53
2021/10/30 03:36:44;;;;;;;33.38;20.92;;;;;;;5.78;98.22;99758.59;5029219;28;20042;-53
2021/10/30 03:39:10;;;;;;;36.38;21.63;;;;;;;5.82;98.61;99760.19;5037112;28;20485;-53
2021/10/30 03:41:37;;;;;;;31.95;19.48;;;;;;;5.90;97.24;99761.63;5036013;28;20072;-53
2021/10/30 03:44:04;;;;;;;32.58;20.58;;;;;;;5.88;97.55;99763.47;5033978;28;20041;-53
2021/10/30 03:46:30;;;;;;;35.05;19.73;;;;;;;5.84;97.13;99755.72;5026108;28;20064;-53
2021/10/30 03:48:57;;;;;;;32.05;20.02;;;;;;;5.88;97.25;99752.94;5034319;28;20111;-53
2021/10/30 03:51:23;;;;;;;29.70;19.05;;;;;;;5.88;96.73;99746.81;5039117;28;20047;-52
2021/10/30 03:53:50;;;;;;;29.75;18.25;;;;;;;5.88;96.27;99758.19;5036908;28;20060;-54
2021/10/30 03:56:16;;;;;;;31.23;18.95;;;;;;;5.93;95.91;99750.16;5035000;28;20044;-53
2021/10/30 03:58:43;;;;;;;31.40;18.77;;;;;;;5.93;95.30;99747.53;5041359;28;20055;-52
2021/10/30 04:01:10;;;;;;;28.27;18.50;;;;;;;5.91;95.55;99741.47;5035344;28;20044;-53
2021/10/30 04:03:36;;;;;;;28.85;18.75;;;;;;;5.84;94.92;99750.44;5034785;28;20092;-54
2021/10/30 04:06:03;;;;;;;28.58;18.80;;;;;;;5.77;95.42;99755.09;5030788;28;20049;-53
2021/10/30 04:08:29;;;;;;;29.80;18.75;;;;;;;5.82;96.02;99771.56;5037547;28;20045;-53
2021/10/30 04:10:56;;;;;;;28.33;18.05;;;;;;;5.77;95.11;99776.13;5041286;28;20052;-54
2021/10/30 04:13:23;;;;;;;30.08;19.42;;;;;;;5.83;95.48;99760.09;5033292;28;20061;-53
2021/10/30 04:15:50;;;;;;;29.38;18.13;;;;;;;5.78;95.73;99751.56;5035267;28;20049;-52
2021/10/30 04:18:16;;;;;;;30.38;18.77;;;;;;;5.72;95.41;99749.16;5035076;28;20053;-53
2021/10/30 04:20:43;;;;;;;27.50;17.88;;;;;;;5.63;95.88;99736.38;5039712;28;20045;-53
2021/10/30 04:23:09;;;;;;;30.30;19.98;;;;;;;5.68;96.71;99744.91;5040325;28;20045;-53
2021/10/30 04:25:36;;;;;;;29.05;18.25;;;;;;;5.70;96.04;99743.09;5032466;28;20132;-54
2021/10/30 04:28:03;;;;;;;30.08;19.00;;;;;;;5.66;96.08;99738.03;5039010;28;20049;-52
2021/10/30 04:30:30;;;;;;;28.77;17.35;;;;;;;5.62;96.08;99735.50;5035173;28;20049;-54
2021/10/30 04:32:57;;;;;;;28.92;18.58;;;;;;;5.61;96.92;99735.56;5042520;28;20041;-53
2021/10/30 04:35:23;;;;;;;27.30;18.15;;;;;;;5.58;96.71;99727.81;5032757;28;20053;-53
2021/10/30 04:37:50;;;;;;;28.05;19.08;;;;;;;5.58;96.50;99717.28;5032422;28;20056;-54
2021/10/30 04:40:17;;;;;;;27.63;18.38;;;;;;;5.49;96.21;99709.78;5036775;28;20045;-53
2021/10/30 04:42:43;;;;;;;29.23;17.35;;;;;;;5.54;96.45;99715.69;5036968;28;20061;-53
2021/10/30 04:45:10;;;;;;;29.17;18.52;;;;;;;5.53;96.40;99714.84;5042695;28;20049;-53
2021/10/30 04:47:38;;;;;;;30.23;18.30;;;;;;;5.39;97.05;99698.72;5035156;28;20068;-54
2021/10/30 04:50:04;;;;;;;27.10;17.83;;;;;;;5.49;96.57;99713.25;5038232;28;20043;-54
2021/10/30 04:52:32;;;;;;;28.38;17.63;;;;;;;5.39;96.71;99703.13;5035260;28;20509;-53
2021/10/30 04:54:58;;;;;;;27.63;17.77;;;;;;;5.48;97.07;99716.78;5033682;28;20045;-56
2021/10/30 04:57:25;;;;;;;27.27;17.52;;;;;;;5.48;96.99;99708.06;5030018;28;20060;-53
2021/10/30 04:59:51;;;;;;;27.98;18.23;;;;;;;5.45;97.50;99700.28;5036631;28;20050;-53
2021/10/30 05:02:18;;;;;;;28.08;18.55;;;;;;;5.44;97.70;99703.81;5040990;28;20048;-54
2021/10/30 05:04:45;;;;;;;30.83;18.67;;;;;;;5.48;97.43;99687.06;5042983;28;20040;-53
2021/10/30 05:07:11;;;;;;;28.48;18.30;;;;;;;5.51;97.45;99684.31;5030416;28;20053;-53
2021/10/30 05:09:38;;;;;;;31.65;18.48;;;;;;;5.43;97.16;99666.22;5033620;28;20905;-53
2021/10/30 05:12:06;;;;;;;29.85;18.25;;;;;;;5.49;97.39;99676.50;5039682;28;20045;-53
2021/10/30 05:14:32;;;;;;;30.70;19.23;;;;;;;5.47;97.36;99664.34;5036426;28;20045;-53
2021/10/30 05:16:59;;;;;;;33.70;19.75;;;;;;;5.52;97.59;99670.25;5033264;28;20051;-53
2021/10/30 05:19:25;;;;;;;33.10;20.33;;;;;;;5.55;97.31;99676.25;5041695;28;20509;-53
2021/10/30 05:21:52;;;;;;;32.53;18.95;;;;;;;5.60;97.19;99668.19;5035364;28;20080;-52
2021/10/30 05:24:18;;;;;;;33.75;20.25;;;;;;;5.66;96.71;99662.72;5038660;28;20037;-53
2021/10/30 05:26:45;;;;;;;32.60;19.58;;;;;;;5.74;96.28;99663.25;5028755;28;20498;-53
2021/10/30 05:29:11;;;;;;;31.85;20.02;;;;;;;5.76;96.53;99660.59;5037671;28;20477;-55
2021/10/30 05:31:38;;;;;;;30.77;19.17;;;;;;;5.76;96.00;99658.81;5034670;28;20046;-52
2021/10/30 05:34:04;;;;;;;29.25;19.15;;;;;;;5.78;95.57;99661.38;5037019;28;20581;-52
2021/10/30 05:36:34;;;;;;;31.40;19.67;;;;;;;5.83;95.33;99655.00;5032038;28;20045;-53
2021/10/30 05:39:01;;;;;;;30.80;18.58;;;;;;;5.95;94.58;99669.50;5038227;28;20521;-52
2021/10/30 05:41:28;;;;;;;31.92;19.75;;;;;;;5.98;93.85;99661.50;5034839;28;20057;-52
2021/10/30 05:43:54;;;;;;;32.15;18.95;;;;;;;5.84;94.29;99640.97;5032548;28;20049;-52
2021/10/30 05:46:21;;;;;;;31.35;19.50;;;;;;;6.02;93.74;99654.31;5032833;28;20053;-52
2021/10/30 05:48:48;;;;;;;30.95;18.80;;;;;;;6.01;93.98;99640.31;5032493;28;20040;-51
2021/10/30 05:51:14;;;;;;;32.92;19.40;;;;;;;6.03;93.81;99640.25;5041474;28;20528;-53
2021/10/30 05:53:41;;;;;;;30.80;19.20;;;;;;;6.05;93.48;99654.19;5032417;28;20056;-54
2021/10/30 05:56:08;;;;;;;29.92;19.20;;;;;;;6.12;93.07;99646.03;5030537;28;20056;-53
2021/10/30 05:58:34;;;;;;;32.63;19.77;;;;;;;6.16;92.61;99651.97;5035047;28;20059;-55
2021/10/30 06:01:01;;;;;;;33.13;19.63;;;;;;;6.11;92.22;99651.34;5037594;28;20053;-52
2021/10/30 06:03:29;;;;;;;33.17;20.20;;;;;;;5.98;92.99;99633.41;5032736;28;20060;-53
2021/10/30 06:05:55;;;;;;;31.60;19.02;;;;;;;6.09;92.86;99645.28;5035675;28;20049;-54
2021/10/30 06:08:22;;;;;;;32.28;19.73;;;;;;;6.09;93.46;99661.06;5039736;28;20775;-54
2021/10/30 06:10:48;;;;;;;35.13;20.92;;;;;;;6.12;93.39;99653.03;5038470;28;22012;-54
2021/10/30 06:13:15;;;;;;;33.92;21.00;;;;;;;6.12;93.47;99651.28;5038231;28;20056;-55
2021/10/30 06:15:42;;;;;;;33.25;20.13;;;;;;;6.08;93.42;99647.06;5035893;28;20044;-54
2021/10/30 06:18:08;;;;;;;33.53;20.27;;;;;;;6.08;93.60;99643.56;5028542;28;20052;-53
2021/10/30 06:20:35;;;;;;;33.15;20.55;;;;;;;6.10;94.14;99636.47;5039080;28;20410;-54
2021/10/30 06:23:03;;;;;;;34.20;21.10;;;;;;;6.17;94.05;99636.16;5041236;28;20506;-54
2021/10/30 06:25:30;;;;;;;34.13;20.38;;;;;;;6.19;93.48;99630.84;5025976;28;20044;-54
2021/10/30 06:27:58;;;;;;;38.47;22.10;;;;;;;6.25;93.43;99622.72;5029212;28;20068;-54
2021/10/30 06:30:24;;;;;;;36.08;20.73;;;;;;;6.25;93.23;99620.94;5048347;28;20049;-53
2021/10/30 06:32:52;;;;;;;37.55;21.65;;;;;;;6.27;93.04;99619.09;5038611;28;20055;-54
2021/10/30 06:35:18;;;;;;;34.60;20.95;;;;;;;6.29;93.12;99616.41;5043052;28;20625;-52
2021/10/30 06:37:45;;;;;;;35.40;21.27;;;;;;;6.29;93.25;99617.25;5027211;28;20048;-54
2021/10/30 06:40:13;;;;;;;33.53;20.45;;;;;;;6.29;93.50;99621.66;5037738;28;20041;-54
2021/10/30 06:42:40;;;;;;;34.13;19.95;;;;;;;6.36;93.29;99632.75;5045559;28;20049;-54
2021/10/30 06:45:07;;;;;;;35.30;21.60;;;;;;;6.36;93.54;99631.00;5040061;28;20060;-52
2021/10/30 06:47:35;;;;;;;34.42;20.73;;;;;;;6.41;93.42;99623.78;5030521;28;20062;-55
2021/10/30 06:50:04;;;;;;;37.60;22.13;;;;;;;6.45;93.33;99617.47;5033280;28;20628;-53
2021/10/30 06:52:37;;;;;;;38.55;22.83;;;;;;;6.54;92.69;99624.97;5041409;28;20419;-54
2021/10/30 06:55:09;;;;;;;38.55;22.67;;;;;;;6.59;92.21;99625.63;5034416;28;20041;-53
2021/10/30 06:57:36;;;;;;;38.05;22.85;;;;;;;6.64;92.43;99618.38;5027123;28;20066;-53
2021/10/30 07:00:06;;;;;;;34.47;22.08;;;;;;;6.66;91.69;99606.00;5041213;28;20045;-54
2021/10/30 07:02:33;;;;;;;38.80;21.98;;;;;;;6.66;91.27;99599.88;5035973;28;20049;-54
2021/10/30 07:05:05;;;;;;;38.38;22.95;;;;;;;6.71;92.09;99597.06;5039634;28;20057;-53
2021/10/30 07:07:31;;;;;;;35.58;21.98;;;;;;;6.77;91.45;99612.59;5028848;28;20048;-52
2021/10/30 07:10:01;;;;;;;34.38;21.70;;;;;;;6.64;90.58;99596.47;5033571;28;20052;-54
2021/10/30 07:12:33;;;;;;;37.00;21.95;;;;;;;6.74;91.41;99628.50;5036384;28;20130;-52
2021/10/30 07:15:07;;;;;;;37.55;22.40;;;;;;;6.79;90.94;99631.78;5035670;28;20046;-51
2021/10/30 07:17:34;;;;;;;41.28;22.92;;;;;;;6.82;90.83;99624.63;5033610;28;20478;-52
2021/10/30 07:20:02;;;;;;;37.65;21.83;;;;;;;6.82;90.83;99603.56;5036017;28;20044;-52
2021/10/30 07:22:28;;;;;;;37.53;21.52;;;;;;;6.80;90.06;99596.66;5032391;28;20049;-53
2021/10/30 07:24:55;;;;;;;37.72;21.77;;;;;;;6.79;90.68;99602.84;5033627;28;20498;-53
2021/10/30 07:27:21;;;;;;;37.28;21.77;;;;;;;6.81;90.80;99607.13;5027442;28;20048;-53
2021/10/30 07:29:48;;;;;;;34.55;20.95;;;;;;;6.84;90.90;99611.38;5037291;28;20049;-53
2021/10/30 07:32:16;;;;;;;37.88;22.48;;;;;;;6.89;90.71;99612.06;5038165;28;20613;-53
2021/10/30 07:34:43;;;;;;;36.75;21.83;;;;;;;6.91;89.82;99597.06;5034912;28;20842;-53
2021/10/30 07:37:10;;;;;;;37.92;22.75;;;;;;;6.90;90.21;99588.31;5028781;28;20052;-55
2021/10/30 07:39:37;;;;;;;35.10;21.33;;;;;;;6.92;89.58;99585.59;5039003;28;20068;-51
2021/10/30 07:42:05;;;;;;;35.58;21.90;;;;;;;6.90;89.83;99590.94;5035205;28;20049;-52
2021/10/30 07:44:31;;;;;;;36.67;21.60;;;;;;;6.87;90.34;99592.84;5037439;28;20056;-52
2021/10/30 07:46:58;;;;;;;36.35;21.75;;;;;;;6.87;89.92;99600.72;5033025;28;20060;-54
2021/10/30 07:49:24;;;;;;;37.33;22.15;;;;;;;6.87;89.73;99606.84;5037689;28;20490;-53
2021/10/30 07:51:51;;;;;;;39.22;22.40;;;;;;;6.89;89.93;99622.56;5035245;28;20068;-53
2021/10/30 07:54:18;;;;;;;38.40;22.88;;;;;;;6.92;90.98;99622.44;5053430;28;20102;-52
2021/10/30 07:56:44;;;;;;;36.83;22.77;;;;;;;6.95;91.50;99614.38;5028768;28;20056;-54
2021/10/30 07:59:11;;;;;;;35.50;21.75;;;;;;;7.00;91.08;99612.41;5035705;28;20052;-53
2021/10/30 08:01:38;;;;;;;37.65;22.88;;;;;;;7.05;90.49;99594.66;5037658;28;20056;-52
2021/10/30 08:04:08;;;;;;;37.83;23.70;;;;;;;7.09;89.91;99590.94;5038430;28;20045;-54
2021/10/30 08:06:35;;;;;;;37.88;23.00;;;;;;;7.11;89.31;99591.72;5030827;28;20053;-54
2021/10/30 08:09:03;;;;;;;36.10;22.35;;;;;;;7.15;89.68;99588.03;5034607;28;20492;-55
2021/10/30 08:11:30;;;;;;;36.47;22.80;;;;;;;7.24;89.14;99578.88;5041405;28;20087;-53
2021/10/30 08:13:56;;;;;;;36.72;22.13;;;;;;;7.15;88.64;99576.66;5042310;28;20316;-52
2021/10/30 08:16:23;;;;;;;37.33;23.25;;;;;;;7.28;88.86;99593.59;5034868;28;20053;-53
2021/10/30 08:18:50;;;;;;;38.55;23.17;;;;;;;7.38;88.42;99616.81;5033840;28;20139;-54
2021/10/30 08:21:17;;;;;;;38.45;23.05;;;;;;;7.40;88.54;99619.34;5041543;28;20512;-52
2021/10/30 08:23:43;;;;;;;40.45;23.25;;;;;;;7.42;87.99;99632.44;5043930;28;20128;-54
2021/10/30 08:26:10;;;;;;;38.20;22.52;;;;;;;7.42;88.11;99635.94;5042009;28;20051;-53
2021/10/30 08:28:37;;;;;;;36.70;23.05;;;;;;;7.40;87.80;99628.09;5036529;28;20056;-54
2021/10/30 08:31:03;;;;;;;36.80;23.10;;;;;;;7.38;88.23;99621.22;5034399;28;20041;-53
2021/10/30 08:33:30;;;;;;;39.33;23.42;;;;;;;7.39;88.54;99625.56;5037979;28;20418;-53
2021/10/30 08:35:56;;;;;;;37.97;22.95;;;;;;;7.37;88.35;99630.91;5040251;28;20045;-53
2021/10/30 08:38:23;;;;;;;37.42;23.92;;;;;;;7.44;88.14;99626.19;5032178;28;20392;-54
2021/10/30 08:40:50;;;;;;;37.08;22.73;;;;;;;7.33;87.83;99602.13;5038503;28;20051;-53
2021/10/30 08:43:22;;;;;;;36.25;22.42;;;;;;;7.50;87.75;99622.44;5040979;28;20045;-53
2021/10/30 08:45:50;;;;;;;36.35;22.08;;;;;;;7.47;87.37;99620.78;5035137;28;20063;-55
2021/10/30 08:48:24;;;;;;;38.75;22.60;;;;;;;7.46;87.53;99623.47;5032017;28;20048;-52
2021/10/30 08:50:53;;;;;;;37.15;23.70;;;;;;;7.51;87.38;99622.34;5042730;28;20041;-53
2021/10/30 08:53:21;;;;;;;36.75;23.40;;;;;;;7.56;87.10;99615.06;5033013;28;20052;-55
2021/10/30 08:55:48;;;;;;;39.28;23.58;;;;;;;7.63;86.32;99613.88;5030948;28;20053;-52
2021/10/30 08:58:15;;;;;;;38.05;22.60;;;;;;;7.64;86.16;99617.34;5030753;28;20056;-53
2021/10/30 09:00:43;;;;;;;35.47;21.88;;;;;;;7.62;86.41;99629.75;5053130;28;20045;-53
2021/10/30 09:03:12;;;;;;;36.85;21.88;;;;;;;7.66;87.01;99624.28;5038070;28;20126;-52
2021/10/30 09:05:40;;;;;;;36.22;22.35;;;;;;;7.79;85.45;99616.63;5033072;28;20358;-52
2021/10/30 09:08:11;;;;;;;35.00;22.35;;;;;;;7.77;85.80;99607.06;5026455;28;20067;-54
2021/10/30 09:10:47;;;;;;;34.40;21.80;;;;;;;7.75;85.66;99601.88;5037314;28;20033;-54
2021/10/30 09:13:15;;;;;;;32.60;21.45;;;;;;;7.77;85.89;99607.06;5033651;28;20045;-54
2021/10/30 09:15:50;;;;;;;35.35;22.00;;;;;;;7.78;85.60;99601.75;5032824;28;20465;-53
2021/10/30 09:18:28;;;;;;;34.03;21.58;;;;;;;7.81;85.58;99590.19;5027517;28;20508;-57
2021/10/30 09:21:05;;;;;;;37.05;21.80;;;;;;;7.85;85.00;99589.13;5034170;28;20033;-53
2021/10/30 09:23:36;;;;;;;35.22;21.92;;;;;;;7.83;85.53;99589.19;5032990;28;20065;-53
2021/10/30 09:26:05;;;;;;;35.92;22.73;;;;;;;7.89;85.87;99588.88;5033792;28;20049;-53
2021/10/30 09:28:36;;;;;;;37.50;22.48;;;;;;;7.96;85.06;99573.63;5023328;28;20045;-52
2021/10/30 09:31:05;;;;;;;35.60;21.10;;;;;;;7.94;84.88;99583.41;5029751;28;20483;-53
2021/10/30 09:33:34;;;;;;;33.75;21.33;;;;;;;7.91;85.28;99576.50;5037489;28;20613;-54
2021/10/30 09:36:09;;;;;;;36.80;21.27;;;;;;;7.93;85.25;99573.78;5033500;28;20059;-53
2021/10/30 09:38:39;;;;;;;35.55;21.38;;;;;;;7.98;84.94;99561.25;5026358;28;20049;-53
2021/10/30 09:41:39;;;;;;;34.07;21.33;;;;;;;8.00;84.67;99568.16;5033985;28;20044;-53
2021/10/30 09:44:20;;;;;;;33.75;21.65;;;;;;;8.02;85.20;99563.66;5015850;28;20048;-52
2021/10/30 09:46:46;;;;;;;35.63;21.20;;;;;;;8.03;84.57;99567.09;5031706;28;20053;-53
2021/10/30 09:49:36;;;;;;;35.53;21.23;;;;;;;8.00;84.90;99570.78;5032562;28;20382;-52
2021/10/30 09:52:05;;;;;;;35.30;20.75;;;;;;;8.04;85.41;99574.94;5031763;28;20045;-53
2021/10/30 09:54:34;;;;;;;35.72;20.83;;;;;;;8.11;85.16;99578.16;5039516;28;20096;-53
2021/10/30 09:57:01;;;;;;;31.23;19.95;;;;;;;8.19;85.13;99560.13;5036159;28;20052;-54
2021/10/30 09:59:33;;;;;;;35.72;20.27;;;;;;;8.24;84.58;99566.03;5022368;28;20053;-54
2021/10/30 10:02:01;;;;;;;33.03;20.85;;;;;;;8.31;82.92;99559.53;5038767;28;20670;-52
2021/10/30 10:04:27;;;;;;;35.70;21.02;;;;;;;8.32;83.12;99560.44;5033009;28;20409;-53
2021/10/30 10:06:54;;;;;;;33.80;20.90;;;;;;;8.35;83.41;99568.16;5028237;28;20977;-52
2021/10/30 10:09:21;;;;;;;34.85;21.20;;;;;;;8.41;82.70;99570.50;5037161;28;20048;-53
2021/10/30 10:11:49;;;;;;;30.85;19.80;;;;;;;8.29;82.80;99552.63;5037542;28;20055;-53
2021/10/30 10:14:17;;;;;;;35.72;21.33;;;;;;;8.41;82.17;99574.00;5029877;28;20048;-54
2021/10/30 10:16:48;;;;;;;40.90;21.40;;;;;;;8.36;82.57;99569.88;5036594;28;20059;-54
2021/10/30 10:19:16;;;;;;;34.50;20.10;;;;;;;8.38;83.18;99568.00;5027548;28;20714;-54
2021/10/30 10:21:43;;;;;;;36.00;20.98;;;;;;;8.43;83.04;99568.66;5032318;28;20051;-53
2021/10/30 10:24:15;;;;;;;36.95;21.52;;;;;;;8.49;82.47;99576.25;5034396;28;20041;-54
2021/10/30 10:26:53;;;;;;;32.58;20.02;;;;;;;8.56;81.42;99585.53;5032249;28;20044;-53
2021/10/30 10:29:38;;;;;;;32.47;19.25;;;;;;;8.59;81.97;99580.13;5026656;28;20041;-53
2021/10/30 10:32:15;;;;;;;34.17;20.33;;;;;;;8.64;81.60;99588.66;5030968;28;20059;-53
2021/10/30 10:34:42;;;;;;;35.58;21.17;;;;;;;8.57;81.29;99563.50;5036468;28;20048;-54
2021/10/30 10:37:11;;;;;;;33.35;20.95;;;;;;;8.72;81.14;99583.81;5031245;28;20056;-53
2021/10/30 10:39:45;;;;;;;37.38;20.10;;;;;;;8.74;81.12;99581.94;5029035;28;20052;-54
2021/10/30 10:42:36;;;;;;;32.58;19.92;;;;;;;8.73;80.92;99589.94;5035778;28;20045;-52
2021/10/30 10:45:06;;;;;;;34.97;19.88;;;;;;;8.65;81.05;99568.41;5039083;28;20594;-54
2021/10/30 10:47:35;;;;;;;35.22;20.33;;;;;;;8.74;80.28;99571.41;5027521;28;20679;-54
2021/10/30 10:50:22;;;;;;;35.80;20.98;;;;;;;8.56;80.85;99516.94;5032487;28;20045;-52
2021/10/30 10:53:01;;;;;;;35.40;19.77;;;;;;;8.69;80.48;99499.50;5028659;28;20045;-52
2021/10/30 10:55:36;;;;;;;36.65;19.95;;;;;;;8.71;80.04;99481.81;5045409;28;20045;-54
2021/10/30 10:58:07;;;;;;;36.00;19.60;;;;;;;8.70;80.81;99480.09;5028066;28;20049;-52
2021/10/30 11:00:36;;;;;;;34.20;19.20;;;;;;;8.67;81.66;99496.09;5032745;28;20041;-53
2021/10/30 11:03:03;;;;;;;32.75;19.40;;;;;;;8.71;82.68;99531.97;5034623;28;20498;-53
2021/10/30 11:05:35;;;;;;;37.22;19.63;;;;;;;8.60;83.42;99513.22;5033071;28;20045;-53
2021/10/30 11:08:46;;;;;;;35.83;20.25;;;;;;;8.63;84.67;99506.91;5025459;28;20054;-53
2021/10/30 11:11:19;;;;;;;37.92;21.02;;;;;;;8.63;84.44;99497.22;5022046;28;20049;-53
2021/10/30 11:14:05;;;;;;;37.22;19.77;;;;;;;8.72;84.54;99499.34;5027364;28;20502;-54
2021/10/30 11:16:41;;;;;;;40.67;21.60;;;;;;;8.78;84.77;99498.19;5034433;28;20476;-53
2021/10/30 11:19:21;;;;;;;37.10;20.52;;;;;;;8.86;85.18;99497.75;5029201;28;20057;-55
2021/10/30 11:21:52;;;;;;;36.93;20.07;;;;;;;8.89;84.15;99494.94;5018124;28;20065;-53
2021/10/30 11:24:20;;;;;;;33.83;18.95;;;;;;;8.87;82.57;99494.19;5037480;28;20036;-54
2021/10/30 11:26:55;;;;;;;35.13;19.60;;;;;;;8.78;82.61;99512.22;5028957;28;20366;-54